createdAt,value
2022-11-20T00:01:38.272Z,13.43
2022-11-20T00:04:05.182Z,8.95
2022-11-20T00:06:33.008Z,12.48
2022-11-20T00:09:02.397Z,8.43
2022-11-20T00:11:30.990Z,9.90
2022-11-20T00:14:02.362Z,10.98
2022-11-20T00:16:35.536Z,7.13
2022-11-20T00:19:02.853Z,8.95
2022-11-20T00:21:30.033Z,10.85
2022-11-20T00:24:03.903Z,12.60
2022-11-20T00:26:31.284Z,10.57
2022-11-20T00:31:50.614Z,8.65
2022-11-20T00:34:20.737Z,11.35
2022-11-20T00:36:47.540Z,14.98
2022-11-20T00:39:14.385Z,12.38
2022-11-20T00:41:41.173Z,9.88
2022-11-20T00:44:10.085Z,15.90
2022-11-20T00:46:37.508Z,10.27
2022-11-20T00:49:04.256Z,11.90
2022-11-20T00:51:32.055Z,13.23
2022-11-20T00:54:00.869Z,11.52
2022-11-20T00:56:27.857Z,10.13
2022-11-20T00:58:55.078Z,10.30
2022-11-20T01:01:26.129Z,10.45
2022-11-20T01:03:55.325Z,9.98
2022-11-20T01:06:31.302Z,11.57
2022-11-20T01:09:00.160Z,10.50
2022-11-20T01:11:31.063Z,12.30
2022-11-20T01:14:01.044Z,19.17
2022-11-20T01:16:30.871Z,14.85
2022-11-20T01:19:00.491Z,13.43
2022-11-20T01:21:31.054Z,15.85
2022-11-20T01:23:59.181Z,12.00
2022-11-20T01:26:29.728Z,12.13
2022-11-20T01:28:57.994Z,10.68
2022-11-20T01:31:33.027Z,15.73
2022-11-20T01:34:04.513Z,13.60
2022-11-20T01:36:33.520Z,9.55
2022-11-20T01:39:05.693Z,12.05
2022-11-20T01:41:52.770Z,15.60
2022-11-20T01:44:22.597Z,10.77
2022-11-20T01:47:03.163Z,12.65
2022-11-20T01:49:41.347Z,12.40
2022-11-20T01:52:19.379Z,10.45
2022-11-20T01:55:10.120Z,10.52
2022-11-20T01:57:38.184Z,10.80
2022-11-20T02:00:12.444Z,12.55
2022-11-20T02:02:46.757Z,13.05
2022-11-20T02:05:38.810Z,13.38
2022-11-20T02:08:08.044Z,16.73
2022-11-20T02:10:38.749Z,13.75
2022-11-20T02:13:24.181Z,11.93
2022-11-20T02:15:51.561Z,13.27
2022-11-20T02:18:21.023Z,15.38
2022-11-20T02:20:50.833Z,17.92
2022-11-20T02:23:38.983Z,15.02
2022-11-20T02:26:09.889Z,10.75
2022-11-20T02:28:38.146Z,15.50
2022-11-20T02:31:06.268Z,12.50
2022-11-20T02:33:33.045Z,14.77
2022-11-20T02:35:59.802Z,14.25
2022-11-20T02:38:26.948Z,18.17
2022-11-20T02:40:55.711Z,22.27
2022-11-20T02:43:23.580Z,12.05
2022-11-20T02:45:50.308Z,10.52
2022-11-20T02:48:17.041Z,15.85
2022-11-20T02:50:43.811Z,14.60
2022-11-20T02:53:10.611Z,11.65
2022-11-20T02:55:37.802Z,12.98
2022-11-20T02:58:04.485Z,12.90
2022-11-20T03:00:31.558Z,14.80
2022-11-20T03:02:58.493Z,16.70
2022-11-20T03:05:25.266Z,19.00
2022-11-20T03:07:52.216Z,13.35
2022-11-20T03:10:19.136Z,12.68
2022-11-20T03:12:46.398Z,14.82
2022-11-20T03:15:13.182Z,13.75
2022-11-20T03:17:40.090Z,13.70
2022-11-20T03:20:07.623Z,18.85
2022-11-20T03:22:34.436Z,18.60
2022-11-20T03:25:02.266Z,17.58
2022-11-20T03:27:34.155Z,14.25
2022-11-20T03:30:07.747Z,15.70
2022-11-20T03:32:35.458Z,18.38
2022-11-20T03:35:02.184Z,17.25
2022-11-20T03:37:29.003Z,18.42
2022-11-20T03:39:55.634Z,14.90
2022-11-20T03:42:41.171Z,20.33
2022-11-20T03:45:08.425Z,19.17
2022-11-20T03:47:35.210Z,24.67
2022-11-20T03:50:02.060Z,21.90
2022-11-20T03:52:28.869Z,18.00
2022-11-20T03:54:55.726Z,16.90
2022-11-20T03:57:23.555Z,18.20
2022-11-20T03:59:51.782Z,22.52
2022-11-20T04:02:18.649Z,30.77
2022-11-20T04:04:45.456Z,22.20
2022-11-20T04:07:12.378Z,23.77
2022-11-20T04:09:39.135Z,19.10
2022-11-20T04:12:05.989Z,20.42
2022-11-20T04:14:32.782Z,20.60
2022-11-20T04:16:59.480Z,22.02
2022-11-20T04:19:26.247Z,24.88
2022-11-20T04:21:54.428Z,29.42
2022-11-20T04:24:21.139Z,27.00
2022-11-20T04:26:47.915Z,24.38
2022-11-20T04:29:15.925Z,31.52
2022-11-20T04:31:42.931Z,23.60
2022-11-20T04:34:12.790Z,22.20
2022-11-20T04:36:40.732Z,16.88
2022-11-20T04:39:08.004Z,25.85
2022-11-20T04:41:37.207Z,17.52
2022-11-20T04:44:07.192Z,28.55
2022-11-20T04:46:40.405Z,18.50
2022-11-20T04:49:08.182Z,22.67
2022-11-20T04:51:35.176Z,21.95
2022-11-20T04:54:02.474Z,26.50
2022-11-20T04:56:29.265Z,21.83
2022-11-20T04:58:56.013Z,22.17
2022-11-20T05:01:24.943Z,17.50
2022-11-20T05:03:53.116Z,19.48
2022-11-20T05:06:22.334Z,20.77
2022-11-20T05:08:49.469Z,26.90
2022-11-20T05:11:19.903Z,19.48
2022-11-20T05:13:47.514Z,17.25
2022-11-20T05:16:21.267Z,30.73
2022-11-20T05:18:48.352Z,28.38
2022-11-20T05:21:16.790Z,17.55
2022-11-20T05:23:44.774Z,25.60
2022-11-20T05:26:20.295Z,18.70
2022-11-20T05:28:47.883Z,24.83
2022-11-20T05:31:22.024Z,30.42
2022-11-20T05:33:52.330Z,25.95
2022-11-20T05:36:19.222Z,22.27
2022-11-20T05:38:49.066Z,19.05
2022-11-20T05:41:19.965Z,18.45
2022-11-20T05:43:48.298Z,21.10
2022-11-20T05:46:17.735Z,24.08
2022-11-20T05:48:45.883Z,19.52
2022-11-20T05:51:16.447Z,21.35
2022-11-20T05:53:48.101Z,19.83
2022-11-20T05:56:18.571Z,21.33
2022-11-20T05:58:46.157Z,22.70
2022-11-20T06:01:17.125Z,25.45
2022-11-20T06:03:46.916Z,25.48
2022-11-20T06:06:15.201Z,22.35
2022-11-20T06:08:42.255Z,21.08
2022-11-20T06:11:11.625Z,17.60
2022-11-20T06:13:42.096Z,29.38
2022-11-20T06:16:10.533Z,23.60
2022-11-20T06:18:37.763Z,21.75
2022-11-20T06:21:16.143Z,20.02
2022-11-20T06:23:43.116Z,24.92
2022-11-20T06:26:12.535Z,25.13
2022-11-20T06:28:39.335Z,18.42
2022-11-20T06:31:07.932Z,21.92
2022-11-20T06:33:35.005Z,17.52
2022-11-20T06:36:07.419Z,24.58
2022-11-20T06:38:37.234Z,19.35
2022-11-20T06:41:05.579Z,25.35
2022-11-20T06:43:32.523Z,25.95
2022-11-20T06:46:00.047Z,24.83
2022-11-20T06:48:28.876Z,24.67
2022-11-20T06:50:56.439Z,23.67
2022-11-20T06:53:23.864Z,21.48
2022-11-20T06:55:52.466Z,27.02
2022-11-20T06:58:19.489Z,22.10
2022-11-20T07:00:46.394Z,17.20
2022-11-20T07:03:14.178Z,19.98
2022-11-20T07:05:41.307Z,18.42
2022-11-20T07:08:08.856Z,23.08
2022-11-20T07:10:36.223Z,26.67
2022-11-20T07:13:03.015Z,24.20
2022-11-20T07:15:30.560Z,20.70
2022-11-20T07:18:00.410Z,26.92
2022-11-20T07:20:28.123Z,16.20
2022-11-20T07:22:58.768Z,20.20
2022-11-20T07:25:27.395Z,25.98
2022-11-20T07:27:58.034Z,25.50
2022-11-20T07:30:25.212Z,27.63
2022-11-20T07:32:52.901Z,22.35
2022-11-20T07:35:20.269Z,26.65
2022-11-20T07:37:48.072Z,19.42
2022-11-20T07:40:15.416Z,17.52
2022-11-20T07:42:52.861Z,24.67
2022-11-20T07:45:23.024Z,21.20
2022-11-20T07:47:50.271Z,17.98
2022-11-20T07:50:17.598Z,18.30
2022-11-20T07:52:44.636Z,21.23
2022-11-20T07:55:12.121Z,18.27
2022-11-20T07:57:39.070Z,22.20
2022-11-20T08:00:10.137Z,30.13
2022-11-20T08:02:40.974Z,18.50
2022-11-20T08:05:09.241Z,26.20
2022-11-20T08:07:40.322Z,15.73
2022-11-20T08:10:09.005Z,29.48
2022-11-20T08:12:54.268Z,21.45
2022-11-20T08:15:21.656Z,18.02
2022-11-20T08:18:08.332Z,27.02
2022-11-20T08:20:35.725Z,24.77
2022-11-20T08:23:04.355Z,22.98
2022-11-20T08:25:31.736Z,24.98
2022-11-20T08:28:07.914Z,17.17
2022-11-20T08:30:42.695Z,22.15
2022-11-20T08:33:10.341Z,18.58
2022-11-20T08:35:38.655Z,14.90
2022-11-20T08:38:07.236Z,19.77
2022-11-20T08:40:34.693Z,25.92
2022-11-20T08:43:02.496Z,22.42
2022-11-20T08:45:34.746Z,21.33
2022-11-20T08:48:05.968Z,15.05
2022-11-20T08:50:34.756Z,15.18
2022-11-20T08:53:05.639Z,23.30
2022-11-20T08:55:38.540Z,25.48
2022-11-20T08:58:06.715Z,18.15
2022-11-20T09:00:34.783Z,18.42
2022-11-20T09:03:02.421Z,19.83
2022-11-20T09:05:29.850Z,17.52
2022-11-20T09:08:01.241Z,26.95
2022-11-20T09:10:29.481Z,16.40
2022-11-20T09:12:56.617Z,25.70
2022-11-20T09:15:25.626Z,27.60
2022-11-20T09:17:57.329Z,24.52
2022-11-20T09:20:24.795Z,19.27
2022-11-20T09:22:52.297Z,22.38
2022-11-20T09:25:19.579Z,21.48
2022-11-20T09:27:47.055Z,33.47
2022-11-20T09:30:16.399Z,18.80
2022-11-20T09:32:43.936Z,22.90
2022-11-20T09:35:12.092Z,28.38
2022-11-20T09:37:39.718Z,27.45
2022-11-20T09:40:07.871Z,29.10
2022-11-20T09:43:02.141Z,26.17
2022-11-20T09:45:48.083Z,23.02
2022-11-20T09:48:33.341Z,28.27
2022-11-20T09:51:35.310Z,27.33
2022-11-20T09:54:18.984Z,22.65
2022-11-20T09:56:51.259Z,29.60
2022-11-20T09:59:44.083Z,27.60
2022-11-20T10:02:20.756Z,32.60
2022-11-20T10:05:23.677Z,25.83
2022-11-20T10:08:17.017Z,35.30
2022-11-20T10:11:04.493Z,33.13
2022-11-20T10:14:01.204Z,28.92
2022-11-20T10:16:42.711Z,22.52
2022-11-20T10:19:32.817Z,29.77
2022-11-20T10:22:34.092Z,24.40
2022-11-20T10:25:08.407Z,34.03
2022-11-20T10:27:56.404Z,18.55
2022-11-20T10:30:26.265Z,28.48
2022-11-20T10:32:59.492Z,28.70
2022-11-20T10:35:40.195Z,43.53
2022-11-20T10:38:19.283Z,55.95
2022-11-20T10:40:53.025Z,35.60
2022-11-20T10:43:33.577Z,28.35
2022-11-20T10:46:05.212Z,28.08
2022-11-20T10:48:33.257Z,36.88
2022-11-20T10:51:06.279Z,33.13
2022-11-20T10:53:38.811Z,33.05
2022-11-20T10:56:19.965Z,32.67
2022-11-20T10:59:25.680Z,35.72
2022-11-20T11:01:52.718Z,29.52
2022-11-20T11:04:39.018Z,28.35
2022-11-20T11:07:31.521Z,29.00
2022-11-20T11:09:58.530Z,37.40
2022-11-20T11:12:27.060Z,35.83
2022-11-20T11:14:56.519Z,30.40
2022-11-20T11:17:31.071Z,34.30
2022-11-20T11:20:00.444Z,43.30
2022-11-20T11:22:30.578Z,34.35
2022-11-20T11:24:57.417Z,32.17
2022-11-20T11:27:24.203Z,31.83
2022-11-20T11:29:51.049Z,30.20
2022-11-20T11:32:22.755Z,59.08
2022-11-20T11:35:03.739Z,59.47
2022-11-20T11:37:36.725Z,38.45
2022-11-20T11:42:57.636Z,42.97
2022-11-20T11:45:25.544Z,34.78
2022-11-20T11:47:54.858Z,25.65
2022-11-20T11:50:26.691Z,35.45
2022-11-20T11:53:02.530Z,34.15
2022-11-20T11:55:44.890Z,40.70
2022-11-20T11:58:17.033Z,29.95
2022-11-20T12:00:54.083Z,30.27
2022-11-20T12:03:30.017Z,33.85
2022-11-20T12:06:00.635Z,30.25
2022-11-20T12:08:40.636Z,29.13
2022-11-20T12:11:18.966Z,33.75
2022-11-20T12:13:51.868Z,30.35
2022-11-20T12:16:20.384Z,23.83
2022-11-20T12:18:51.028Z,26.70
2022-11-20T12:21:34.871Z,26.70
2022-11-20T12:24:07.992Z,26.30
2022-11-20T12:27:00.046Z,38.42
2022-11-20T12:29:41.975Z,24.70
2022-11-20T12:32:36.173Z,23.17
2022-11-20T12:35:34.321Z,48.25
2022-11-20T12:38:19.756Z,31.40
2022-11-20T12:41:43.712Z,36.33
2022-11-20T12:44:58.741Z,28.17
2022-11-20T12:47:50.048Z,28.25
2022-11-20T12:51:00.389Z,17.33
2022-11-20T12:53:42.282Z,27.40
2022-11-20T12:56:30.526Z,21.55
2022-11-20T12:59:37.193Z,17.65
2022-11-20T13:02:35.639Z,4.50
2022-11-20T13:05:11.030Z,11.30
2022-11-20T13:07:38.143Z,5.13
2022-11-20T13:10:12.803Z,8.68
2022-11-20T13:12:49.892Z,4.45
2022-11-20T13:15:49.851Z,3.95
2022-11-20T13:18:17.204Z,8.13
2022-11-20T13:20:46.125Z,2.47
2022-11-20T13:23:23.748Z,5.60
2022-11-20T13:25:50.936Z,15.98
2022-11-20T13:28:18.654Z,6.13
2022-11-20T13:30:54.520Z,3.97
2022-11-20T13:33:32.036Z,6.60
2022-11-20T13:36:19.608Z,3.28
2022-11-20T13:38:59.348Z,2.67
2022-11-20T13:41:36.209Z,6.20
2022-11-20T13:44:10.427Z,5.80
2022-11-20T13:46:44.751Z,1.60
2022-11-20T13:49:34.421Z,7.63
2022-11-20T13:52:28.031Z,4.03
2022-11-20T13:55:17.209Z,6.00
2022-11-20T13:58:02.247Z,3.03
2022-11-20T14:00:29.109Z,9.07
2022-11-20T14:03:16.749Z,7.47
2022-11-20T14:06:00.973Z,5.63
2022-11-20T14:08:48.604Z,4.15
2022-11-20T14:11:18.451Z,4.65
2022-11-20T14:14:01.562Z,9.82
2022-11-20T14:16:31.019Z,24.13
2022-11-20T14:19:18.051Z,17.10
2022-11-20T14:21:45.061Z,34.50
2022-11-20T14:24:29.909Z,31.05
2022-11-20T14:27:18.986Z,7.80
2022-11-20T14:29:51.731Z,5.82
2022-11-20T14:32:20.968Z,6.27
2022-11-20T14:34:51.188Z,13.50
2022-11-20T14:37:25.907Z,6.00
2022-11-20T14:40:00.286Z,4.72
2022-11-20T14:42:29.656Z,5.88
2022-11-20T14:44:58.893Z,2.13
2022-11-20T14:47:31.685Z,4.82
2022-11-20T14:50:02.661Z,2.97
2022-11-20T14:52:32.661Z,5.55
2022-11-20T14:55:00.670Z,5.00
2022-11-20T14:57:32.621Z,3.13
2022-11-20T15:00:16.679Z,1.55
2022-11-20T15:02:50.365Z,1.52
2022-11-20T15:05:19.763Z,1.95
2022-11-20T15:08:06.468Z,2.63
2022-11-20T15:10:33.789Z,4.25
2022-11-20T15:13:08.450Z,4.38
2022-11-20T15:16:00.952Z,4.32
2022-11-20T15:18:39.976Z,4.10
2022-11-20T15:21:16.895Z,2.38
2022-11-20T15:23:44.563Z,7.82
2022-11-20T15:26:19.632Z,5.50
2022-11-20T15:28:50.852Z,2.42
2022-11-20T15:31:24.284Z,2.38
2022-11-20T15:33:51.523Z,2.40
2022-11-20T15:36:18.382Z,3.97
2022-11-20T15:38:45.256Z,3.78
2022-11-20T15:41:14.098Z,2.90
2022-11-20T15:43:47.425Z,3.25
2022-11-20T15:46:19.004Z,5.07
2022-11-20T15:48:55.626Z,8.55
2022-11-20T15:51:30.471Z,3.65
2022-11-20T15:53:58.303Z,3.17
2022-11-20T15:56:28.777Z,4.07
2022-11-20T15:58:59.876Z,2.53
2022-11-20T16:01:27.756Z,2.72
2022-11-20T16:03:54.918Z,4.07
2022-11-20T16:06:22.036Z,9.45
2022-11-20T16:08:48.908Z,4.95
2022-11-20T16:11:18.548Z,5.68
2022-11-20T16:14:04.304Z,6.45
2022-11-20T16:16:36.560Z,8.38
2022-11-20T16:19:03.613Z,4.70
2022-11-20T16:21:33.747Z,9.18
2022-11-20T16:24:02.301Z,5.45
2022-11-20T16:26:29.526Z,8.80
2022-11-20T16:28:56.896Z,13.88
2022-11-20T16:31:23.931Z,8.30
2022-11-20T16:33:52.724Z,15.70
2022-11-20T16:36:21.100Z,8.77
2022-11-20T16:38:52.853Z,5.18
2022-11-20T16:41:19.705Z,10.93
2022-11-20T16:43:54.734Z,10.48
2022-11-20T16:46:24.043Z,7.50
2022-11-20T16:48:56.612Z,5.70
2022-11-20T16:51:24.467Z,5.20
2022-11-20T16:53:51.667Z,15.35
2022-11-20T16:56:20.721Z,10.55
2022-11-20T16:58:49.302Z,7.97
2022-11-20T17:01:19.141Z,12.77
2022-11-20T17:03:48.324Z,10.40
2022-11-20T17:06:20.051Z,8.63
2022-11-20T17:08:47.514Z,3.72
2022-11-20T17:11:16.954Z,5.53
2022-11-20T17:13:44.162Z,3.35
2022-11-20T17:16:13.768Z,6.63
2022-11-20T17:18:42.079Z,9.23
2022-11-20T17:21:08.861Z,10.75
2022-11-20T17:23:37.800Z,13.60
2022-11-20T17:26:06.910Z,4.60
2022-11-20T17:28:35.037Z,14.85
2022-11-20T17:31:06.351Z,3.90
2022-11-20T17:33:36.349Z,10.13
2022-11-20T17:36:04.281Z,10.18
2022-11-20T17:38:32.654Z,13.13
2022-11-20T17:41:13.674Z,14.30
2022-11-20T17:43:42.695Z,11.43
2022-11-20T17:46:16.295Z,9.45
2022-11-20T17:48:44.310Z,10.15
2022-11-20T17:51:16.405Z,7.43
2022-11-20T17:53:48.769Z,4.15
2022-11-20T17:56:37.295Z,5.32
2022-11-20T17:59:07.000Z,11.10
2022-11-20T18:01:35.590Z,7.28
2022-11-20T18:04:05.501Z,3.47
2022-11-20T18:06:32.645Z,5.40
2022-11-20T18:09:01.006Z,5.82
2022-11-20T18:11:30.564Z,11.88
2022-11-20T18:14:17.481Z,9.50
2022-11-20T18:16:53.032Z,5.47
2022-11-20T18:19:22.682Z,7.07
2022-11-20T18:21:49.545Z,11.05
2022-11-20T18:24:16.883Z,7.57
2022-11-20T18:26:44.948Z,6.88
2022-11-20T18:29:13.160Z,13.52
2022-11-20T18:31:41.338Z,7.38
2022-11-20T18:34:14.552Z,8.00
2022-11-20T18:36:45.389Z,10.30
2022-11-20T18:39:13.930Z,7.85
2022-11-20T18:42:00.893Z,11.27
2022-11-20T18:44:48.893Z,6.35
2022-11-20T18:47:21.549Z,21.25
2022-11-20T18:49:52.359Z,9.55
2022-11-20T18:52:20.275Z,9.48
2022-11-20T18:54:47.051Z,12.25
2022-11-20T18:57:17.686Z,8.05
2022-11-20T18:59:44.972Z,10.60
2022-11-20T19:02:14.109Z,6.13
2022-11-20T19:04:41.368Z,9.82
2022-11-20T19:07:11.769Z,6.78
2022-11-20T19:09:41.574Z,13.30
2022-11-20T19:12:09.859Z,16.10
2022-11-20T19:14:37.126Z,13.23
2022-11-20T19:17:06.649Z,13.30
2022-11-20T19:19:36.733Z,17.83
2022-11-20T19:22:04.118Z,16.60
2022-11-20T19:24:31.311Z,14.50
2022-11-20T19:26:58.127Z,11.30
2022-11-20T19:29:27.951Z,21.38
2022-11-20T19:31:54.873Z,7.57
2022-11-20T19:34:22.418Z,8.23
2022-11-20T19:36:49.261Z,14.07
2022-11-20T19:39:16.260Z,12.43
2022-11-20T19:41:43.547Z,11.18
2022-11-20T19:44:15.464Z,9.73
2022-11-20T19:46:42.829Z,21.17
2022-11-20T19:49:12.038Z,16.00
2022-11-20T19:51:43.356Z,13.90
2022-11-20T19:54:10.348Z,12.57
2022-11-20T19:56:37.094Z,7.22
2022-11-20T19:59:03.959Z,16.83
2022-11-20T20:01:31.597Z,16.15
2022-11-20T20:04:05.020Z,16.75
2022-11-20T20:06:33.481Z,16.20
2022-11-20T20:09:03.389Z,10.18
2022-11-20T20:11:31.732Z,17.17
2022-11-20T20:14:04.033Z,9.93
2022-11-20T20:16:31.165Z,7.55
2022-11-20T20:19:01.267Z,12.13
2022-11-20T20:21:31.468Z,13.65
2022-11-20T20:24:00.893Z,23.65
2022-11-20T20:26:29.373Z,11.95
2022-11-20T20:28:56.426Z,13.75
2022-11-20T20:31:25.693Z,16.77
2022-11-20T20:33:52.738Z,6.38
2022-11-20T20:36:21.480Z,7.53
2022-11-20T20:38:51.750Z,19.55
2022-11-20T20:41:20.524Z,37.90
2022-11-20T20:44:05.946Z,11.82
2022-11-20T20:46:32.707Z,15.55
2022-11-20T20:48:59.602Z,9.60
2022-11-20T20:51:26.407Z,14.95
2022-11-20T20:53:54.137Z,11.90
2022-11-20T20:56:21.233Z,15.90
2022-11-20T20:58:48.213Z,7.82
2022-11-20T21:01:17.608Z,12.40
2022-11-20T21:03:44.875Z,11.55
2022-11-20T21:06:12.728Z,9.85
2022-11-20T21:08:40.931Z,10.02
2022-11-20T21:11:11.757Z,8.15
2022-11-20T21:13:39.829Z,7.13
2022-11-20T21:16:10.626Z,9.15
2022-11-20T21:18:38.883Z,14.20
2022-11-20T21:21:26.364Z,17.70
2022-11-20T21:23:53.521Z,8.30
2022-11-20T21:26:21.201Z,7.32
2022-11-20T21:28:49.696Z,11.15
2022-11-20T21:31:18.839Z,15.15
2022-11-20T21:33:47.505Z,12.82
2022-11-20T21:36:19.148Z,7.03
2022-11-20T21:38:46.883Z,13.70
2022-11-20T21:41:15.006Z,14.65
2022-11-20T21:43:45.019Z,8.68
2022-11-20T21:46:14.289Z,7.03
2022-11-20T21:48:43.154Z,13.18
2022-11-20T21:51:12.129Z,9.15
2022-11-20T21:53:39.250Z,12.98
2022-11-20T21:56:07.841Z,6.55
2022-11-20T21:58:37.049Z,12.13
2022-11-20T22:01:12.104Z,5.35
2022-11-20T22:03:39.738Z,11.27
2022-11-20T22:06:08.684Z,5.45
2022-11-20T22:08:37.923Z,8.50
2022-11-20T22:11:08.277Z,9.48
2022-11-20T22:13:54.133Z,16.77
2022-11-20T22:16:22.165Z,16.60
2022-11-20T22:18:53.198Z,7.18
2022-11-20T22:21:22.658Z,11.05
2022-11-20T22:23:50.341Z,10.70
2022-11-20T22:26:22.035Z,4.97
2022-11-20T22:28:50.722Z,10.07
2022-11-20T22:31:19.302Z,12.15
2022-11-20T22:33:47.437Z,6.72
2022-11-20T22:36:23.705Z,16.38
2022-11-20T22:38:51.172Z,7.05
2022-11-20T22:41:20.353Z,7.35
2022-11-20T22:43:47.828Z,13.48
2022-11-20T22:46:16.321Z,6.38
2022-11-20T22:48:52.369Z,16.52
2022-11-20T22:51:21.404Z,7.40
2022-11-20T22:53:48.880Z,10.43
2022-11-20T22:56:16.541Z,8.13
2022-11-20T22:58:46.051Z,6.30
2022-11-20T23:01:16.521Z,6.20
2022-11-20T23:03:46.540Z,6.40
2022-11-20T23:06:16.755Z,9.32
2022-11-20T23:08:45.582Z,4.25
2022-11-20T23:11:15.360Z,8.02
2022-11-20T23:13:43.265Z,6.97
2022-11-20T23:16:16.030Z,6.65
2022-11-20T23:18:43.952Z,3.03
2022-11-20T23:21:16.969Z,5.05
2022-11-20T23:23:48.876Z,4.47
2022-11-20T23:26:17.623Z,5.60
2022-11-20T23:28:44.739Z,4.93
2022-11-20T23:31:13.134Z,1.52
2022-11-20T23:33:41.199Z,7.38
2022-11-20T23:36:08.837Z,2.70
2022-11-20T23:38:35.916Z,9.88
2022-11-20T23:41:03.943Z,4.93
2022-11-20T23:43:30.949Z,4.38
2022-11-20T23:46:00.991Z,5.63
2022-11-20T23:48:30.177Z,4.85
2022-11-20T23:50:57.749Z,5.03
2022-11-20T23:53:25.211Z,2.65
2022-11-20T23:55:54.471Z,10.07
2022-11-20T23:58:24.559Z,7.03
